Pratts, Virginia
Current Conditions -  °F | °C
As of 10:55 AM on Sunday 23 Nov 2014 (Local Time) from KOMH Reporting Station
Clear Clear  
Wind Chill: 46°   Ceiling: Unl
Heat Index: 46°   Visibility: 10mi
Dew Point: 27°   Wind: 3mph
Humidity: 46%   Direction: 190°S
Pressure: 30.21"   Gusts: NA
Location:  38.35°N, 78.27°W
Report Text: KOMH 231555Z AUTO 19003KT 10SM CLR 08/M03 A3021 RMK AO2
Loading
Personal Weather Stations






























Interactive Weather Map New forecast layout! Learn more

10-Day Weather Forecast

Advertisements
Track Severe Weather on mobile